createdAt,value
2023-02-09T00:02:11.758Z,14.83
2023-02-09T00:06:23.675Z,18.07
2023-02-09T00:10:29.754Z,18.20
2023-02-09T00:14:36.008Z,18.97
2023-02-09T00:18:40.711Z,18.37
2023-02-09T00:22:45.152Z,17.80
2023-02-09T00:26:48.429Z,13.03
2023-02-09T00:30:53.257Z,18.27
2023-02-09T00:34:56.600Z,14.53
2023-02-09T00:39:02.063Z,15.70
2023-02-09T00:43:09.905Z,16.33
2023-02-09T00:47:15.142Z,13.83
2023-02-09T00:51:20.476Z,8.17
2023-02-09T00:55:26.100Z,8.43
2023-02-09T00:59:29.217Z,8.50
2023-02-09T01:03:34.823Z,8.80
2023-02-09T01:07:38.677Z,12.63
2023-02-09T01:11:48.030Z,9.57
2023-02-09T01:15:51.657Z,11.10
2023-02-09T01:19:55.283Z,8.33
2023-02-09T01:24:01.264Z,9.33
2023-02-09T01:28:13.342Z,8.37
2023-02-09T01:32:19.527Z,11.87
2023-02-09T01:36:24.222Z,8.70
2023-02-09T01:40:27.209Z,9.40
2023-02-09T01:45:06.822Z,6.73
2023-02-09T01:49:16.492Z,9.73
2023-02-09T01:53:21.675Z,7.73
2023-02-09T01:57:32.711Z,10.17
2023-02-09T02:01:42.808Z,8.27
2023-02-09T02:05:48.588Z,9.53
2023-02-09T02:10:01.527Z,9.07
2023-02-09T02:14:04.688Z,8.60
2023-02-09T02:18:28.141Z,12.93
2023-02-09T02:22:52.908Z,9.30
2023-02-09T02:27:07.194Z,10.67
2023-02-09T02:31:47.759Z,8.83
2023-02-09T02:36:01.466Z,8.33
2023-02-09T02:40:14.614Z,9.13
2023-02-09T02:44:20.663Z,9.93
2023-02-09T02:48:31.204Z,9.13
2023-02-09T02:52:37.955Z,8.40
2023-02-09T02:56:46.768Z,8.47
2023-02-09T03:00:51.955Z,8.10
2023-02-09T03:05:05.679Z,8.30
2023-02-09T03:09:10.413Z,8.90
2023-02-09T03:13:28.949Z,7.23
2023-02-09T03:17:38.733Z,10.00
2023-02-09T03:21:55.033Z,6.03
2023-02-09T03:26:05.247Z,8.27
2023-02-09T03:30:11.464Z,9.67
2023-02-09T03:34:24.138Z,8.80
2023-02-09T03:38:27.887Z,9.40
2023-02-09T03:42:32.295Z,9.80
2023-02-09T03:46:35.380Z,9.53
2023-02-09T03:50:42.097Z,9.03
2023-02-09T03:54:48.907Z,12.97
2023-02-09T03:58:55.987Z,11.40
2023-02-09T04:02:59.393Z,15.03
2023-02-09T04:07:02.799Z,11.00
2023-02-09T04:11:06.233Z,10.00
2023-02-09T04:15:14.111Z,17.43
2023-02-09T04:19:20.625Z,10.37
2023-02-09T04:23:23.644Z,13.07
2023-02-09T04:27:27.255Z,12.10
2023-02-09T04:31:31.999Z,8.90
2023-02-09T04:35:37.602Z,11.23
2023-02-09T04:39:43.697Z,12.03
2023-02-09T04:43:47.133Z,8.23
2023-02-09T04:47:51.557Z,8.90
2023-02-09T04:51:54.558Z,8.77
2023-02-09T04:55:57.596Z,13.63
2023-02-09T04:59:59.641Z,9.90
2023-02-09T05:04:09.218Z,16.40
2023-02-09T05:08:13.428Z,21.13
2023-02-09T05:12:16.472Z,18.60
2023-02-09T05:16:19.593Z,16.73
2023-02-09T05:20:25.232Z,22.07
2023-02-09T05:24:28.427Z,18.07
2023-02-09T05:28:33.738Z,29.80
2023-02-09T05:32:39.196Z,22.00
2023-02-09T05:36:43.608Z,16.93
2023-02-09T05:40:47.315Z,20.30
2023-02-09T05:44:57.744Z,14.30
2023-02-09T05:49:00.764Z,22.07
2023-02-09T05:53:05.284Z,21.33
2023-02-09T05:57:11.622Z,21.57
2023-02-09T06:01:19.356Z,22.60
2023-02-09T06:05:22.421Z,26.10
2023-02-09T06:09:27.117Z,20.27
2023-02-09T06:13:30.308Z,24.67
2023-02-09T06:17:33.371Z,30.77
2023-02-09T06:21:42.661Z,25.87
2023-02-09T06:25:47.427Z,24.33
2023-02-09T06:29:50.707Z,16.80
2023-02-09T06:33:55.631Z,19.10
2023-02-09T06:38:01.495Z,22.57
2023-02-09T06:42:06.250Z,23.97
2023-02-09T06:46:10.351Z,26.33
2023-02-09T06:50:17.610Z,24.33
2023-02-09T06:54:21.178Z,23.10
2023-02-09T06:58:27.766Z,24.20
2023-02-09T07:02:30.858Z,23.50
2023-02-09T07:06:34.108Z,16.13
2023-02-09T07:10:37.422Z,20.47
2023-02-09T07:14:45.897Z,16.03
2023-02-09T07:18:52.510Z,16.80
2023-02-09T07:22:55.552Z,20.97
2023-02-09T07:27:05.474Z,46.03
2023-02-09T07:31:12.707Z,25.07
2023-02-09T07:35:17.650Z,22.70
2023-02-09T07:39:21.815Z,344.50
2023-02-09T07:43:27.383Z,363.47
2023-02-09T07:47:31.803Z,268.23
2023-02-09T07:51:36.697Z,212.30
2023-02-09T07:55:42.630Z,575.30
2023-02-09T07:59:45.823Z,736.93
2023-02-09T08:03:51.604Z,283.97
2023-02-09T08:07:56.295Z,365.53
2023-02-09T08:12:01.453Z,384.77
2023-02-09T08:16:08.728Z,771.20
2023-02-09T08:20:18.352Z,1332.47
2023-02-09T08:24:22.872Z,613.63
2023-02-09T08:28:41.814Z,365.37
2023-02-09T08:32:49.095Z,1079.37
2023-02-09T08:36:56.472Z,1999.90
2023-02-09T08:41:04.630Z,48.57
2023-02-09T08:45:08.527Z,47.30
2023-02-09T08:49:13.172Z,31.57
2023-02-09T08:53:17.823Z,20.47
2023-02-09T08:57:20.847Z,25.77
2023-02-09T09:01:24.292Z,26.13
2023-02-09T09:05:32.189Z,16.37
2023-02-09T09:09:36.941Z,21.23
2023-02-09T09:13:40.622Z,14.37
2023-02-09T09:17:43.598Z,17.73
2023-02-09T09:21:49.317Z,17.90
2023-02-09T09:25:53.937Z,20.57
2023-02-09T09:30:02.353Z,17.63
2023-02-09T09:34:05.464Z,12.30
2023-02-09T09:38:09.659Z,12.73
2023-02-09T09:42:25.456Z,13.03
2023-02-09T09:46:36.724Z,14.27
2023-02-09T09:50:45.498Z,12.73
2023-02-09T09:54:48.750Z,11.40
2023-02-09T09:58:53.265Z,13.23
2023-02-09T10:02:56.554Z,11.23
2023-02-09T10:07:03.253Z,13.67
2023-02-09T10:11:12.540Z,14.60
2023-02-09T10:15:28.101Z,13.60
2023-02-09T10:19:37.361Z,12.23
2023-02-09T10:23:46.592Z,14.93
2023-02-09T10:27:49.581Z,17.90
2023-02-09T10:32:00.048Z,15.07
2023-02-09T10:36:06.222Z,18.13
2023-02-09T10:40:24.360Z,17.60
2023-02-09T10:44:35.246Z,17.63
2023-02-09T10:48:45.670Z,21.93
2023-02-09T10:53:00.961Z,22.33
2023-02-09T10:57:04.490Z,21.43
2023-02-09T11:01:22.587Z,19.27
2023-02-09T11:05:33.009Z,20.33
2023-02-09T11:09:38.083Z,20.67
2023-02-09T11:13:43.262Z,22.10
2023-02-09T11:17:54.059Z,18.87
2023-02-09T11:22:05.425Z,28.27
2023-02-09T11:26:15.560Z,26.80
2023-02-09T11:30:45.486Z,23.10
2023-02-09T11:35:10.656Z,29.97
2023-02-09T11:39:20.517Z,26.43
2023-02-09T11:43:32.251Z,24.67
2023-02-09T11:47:55.113Z,24.00
2023-02-09T11:52:00.345Z,26.10
2023-02-09T11:56:09.739Z,25.97
2023-02-09T12:00:21.003Z,22.63
2023-02-09T12:04:28.221Z,31.40
2023-02-09T12:08:47.941Z,30.70
2023-02-09T12:13:02.348Z,29.57
2023-02-09T12:17:13.342Z,32.93
2023-02-09T12:21:30.402Z,31.03
2023-02-09T12:25:53.163Z,27.53
2023-02-09T12:29:58.098Z,31.87
2023-02-09T12:34:29.974Z,31.30
2023-02-09T12:39:04.874Z,33.17
2023-02-09T12:43:30.613Z,29.93
2023-02-09T12:48:00.409Z,33.73
2023-02-09T12:52:18.350Z,33.53
2023-02-09T12:56:29.646Z,34.63
2023-02-09T13:00:41.644Z,32.40
2023-02-09T13:05:03.243Z,36.63
2023-02-09T13:09:10.872Z,37.67
2023-02-09T13:13:19.901Z,43.27
2023-02-09T13:17:32.264Z,44.00
2023-02-09T13:21:43.864Z,40.87
2023-02-09T13:25:47.684Z,40.40
2023-02-09T13:29:55.513Z,45.63
2023-02-09T13:34:04.224Z,37.70
2023-02-09T13:38:17.720Z,44.77
2023-02-09T13:42:22.985Z,46.90
2023-02-09T13:46:28.984Z,45.90
2023-02-09T13:50:33.526Z,46.63
2023-02-09T13:54:38.568Z,46.10
2023-02-09T13:58:44.425Z,47.30
2023-02-09T14:02:51.143Z,57.60
2023-02-09T14:07:01.650Z,51.33
2023-02-09T14:11:22.945Z,46.33
2023-02-09T14:15:54.382Z,40.00
2023-02-09T14:20:00.955Z,45.50
2023-02-09T14:24:20.625Z,47.87
2023-02-09T14:28:25.593Z,44.67
2023-02-09T14:32:35.910Z,39.87
2023-02-09T14:36:39.463Z,40.37
2023-02-09T14:40:42.770Z,42.23
2023-02-09T14:44:56.316Z,43.90
2023-02-09T14:49:01.804Z,38.53
2023-02-09T14:53:07.835Z,44.03
2023-02-09T14:57:14.729Z,41.87
2023-02-09T15:01:21.757Z,42.03
2023-02-09T15:05:26.684Z,39.67
2023-02-09T15:09:35.666Z,37.80
2023-02-09T15:13:40.876Z,43.77
2023-02-09T15:17:46.544Z,43.03
2023-02-09T15:22:05.252Z,47.03
2023-02-09T15:26:12.098Z,41.70
2023-02-09T15:30:19.162Z,43.10
2023-02-09T15:34:25.359Z,42.03
2023-02-09T15:38:34.900Z,43.17
2023-02-09T15:42:55.496Z,42.97
2023-02-09T15:47:16.344Z,46.93
2023-02-09T15:51:20.865Z,45.50
2023-02-09T15:55:28.289Z,47.00
2023-02-09T15:59:35.270Z,48.37
2023-02-09T16:03:38.318Z,46.23
2023-02-09T16:07:42.767Z,47.10
2023-02-09T16:11:45.973Z,52.63
2023-02-09T16:15:49.680Z,52.77
2023-02-09T16:19:54.641Z,55.27
2023-02-09T16:24:03.802Z,132.27
2023-02-09T16:28:09.026Z,405.23
2023-02-09T16:32:16.891Z,259.53
2023-02-09T16:36:22.752Z,422.17
2023-02-09T16:40:33.026Z,96.97
2023-02-09T16:44:41.124Z,56.83
2023-02-09T16:48:49.220Z,63.97
2023-02-09T16:52:55.240Z,52.13
2023-02-09T16:57:00.990Z,53.77
2023-02-09T17:01:08.159Z,51.97
2023-02-09T17:05:19.052Z,55.60
2023-02-09T17:09:22.275Z,58.90
2023-02-09T17:13:27.142Z,59.63
2023-02-09T17:17:30.296Z,57.63
2023-02-09T17:21:37.328Z,58.80
2023-02-09T17:25:46.509Z,54.17
2023-02-09T17:29:52.747Z,66.17
2023-02-09T17:33:59.017Z,64.40
2023-02-09T17:38:04.786Z,61.57
2023-02-09T17:42:11.490Z,54.97
2023-02-09T17:46:19.482Z,63.77
2023-02-09T17:50:25.333Z,66.97
2023-02-09T17:54:29.923Z,63.47
2023-02-09T17:58:35.929Z,69.83
2023-02-09T18:02:40.388Z,69.50
2023-02-09T18:06:43.790Z,71.50
2023-02-09T18:10:46.959Z,69.23
2023-02-09T18:14:50.246Z,72.07
2023-02-09T18:18:54.701Z,79.60
2023-02-09T18:23:05.364Z,75.07
2023-02-09T18:27:09.214Z,80.17
2023-02-09T18:31:18.403Z,71.53
2023-02-09T18:35:31.050Z,78.47
2023-02-09T18:39:36.950Z,77.43
2023-02-09T18:43:40.024Z,78.90
2023-02-09T18:47:44.098Z,81.97
2023-02-09T18:51:48.661Z,77.30
2023-02-09T18:55:53.241Z,85.97
2023-02-09T18:59:58.743Z,80.43
2023-02-09T19:04:01.776Z,80.73
2023-02-09T19:08:07.482Z,96.27
2023-02-09T19:12:12.575Z,88.77
2023-02-09T19:16:15.811Z,81.30
2023-02-09T19:20:21.108Z,86.70
2023-02-09T19:24:27.489Z,78.23
2023-02-09T19:28:35.128Z,84.27
2023-02-09T19:32:38.700Z,83.17
2023-02-09T19:36:41.758Z,97.63
2023-02-09T19:40:48.138Z,88.20
2023-02-09T19:44:51.185Z,79.60
2023-02-09T19:48:54.812Z,85.40
2023-02-09T19:52:58.175Z,73.67
2023-02-09T19:57:04.328Z,82.73
2023-02-09T20:01:13.096Z,83.17
2023-02-09T20:05:17.585Z,98.90
2023-02-09T20:09:20.683Z,90.27
2023-02-09T20:13:28.152Z,88.13
2023-02-09T20:17:33.520Z,90.17
2023-02-09T20:21:37.577Z,85.40
2023-02-09T20:25:42.869Z,79.80
2023-02-09T20:29:50.570Z,84.10
2023-02-09T20:33:55.003Z,98.73
2023-02-09T20:37:58.126Z,81.97
2023-02-09T20:42:18.826Z,82.23
2023-02-09T20:46:45.836Z,81.37
2023-02-09T20:50:50.855Z,89.97
2023-02-09T20:54:53.866Z,89.07
2023-02-09T20:59:00.463Z,89.47
2023-02-09T21:03:06.427Z,85.07
2023-02-09T21:07:09.569Z,86.90
2023-02-09T21:11:12.659Z,88.90
2023-02-09T21:15:21.415Z,84.47
2023-02-09T21:19:26.875Z,94.17
2023-02-09T21:23:31.003Z,87.07
2023-02-09T21:27:34.125Z,94.90
2023-02-09T21:31:37.447Z,82.93
2023-02-09T21:35:42.563Z,79.50
2023-02-09T21:39:45.631Z,83.03
2023-02-09T21:43:50.241Z,82.77
2023-02-09T21:47:53.373Z,82.60
2023-02-09T21:52:01.566Z,85.57
2023-02-09T21:56:09.814Z,101.30
2023-02-09T22:00:17.509Z,98.70
2023-02-09T22:04:24.412Z,100.33
2023-02-09T22:08:30.173Z,89.40
2023-02-09T22:12:34.273Z,95.77
2023-02-09T22:16:39.522Z,91.63
2023-02-09T22:20:47.035Z,94.90
2023-02-09T22:24:51.647Z,87.57
2023-02-09T22:28:54.969Z,92.03
2023-02-09T22:32:58.204Z,93.13
2023-02-09T22:37:01.349Z,97.80
2023-02-09T22:41:07.141Z,95.97
2023-02-09T22:45:12.288Z,89.23
2023-02-09T22:49:24.244Z,85.10
2023-02-09T22:53:31.252Z,90.83
2023-02-09T22:57:35.655Z,80.63
2023-02-09T23:01:41.970Z,87.13
2023-02-09T23:05:45.412Z,87.70
2023-02-09T23:09:48.601Z,83.27
2023-02-09T23:14:08.442Z,89.73
2023-02-09T23:18:12.514Z,79.00
2023-02-09T23:22:17.914Z,91.30
2023-02-09T23:26:24.078Z,99.03
2023-02-09T23:30:28.529Z,94.53
2023-02-09T23:34:32.972Z,85.87
2023-02-09T23:38:43.807Z,87.60
2023-02-09T23:42:49.663Z,85.67
2023-02-09T23:46:54.075Z,86.37
2023-02-09T23:51:01.345Z,80.00
2023-02-09T23:55:04.553Z,84.57
2023-02-09T23:59:14.641Z,77.47
